LLM325 USSS-USMU
Flight info
| Callsign | LLM325 |
|---|---|
| Flight time | 2h 12m |
| Altitude | 35000 |
| Route | DOSUM L992 NAMOL T376 UTORA A925 HMN R124 LARTU W77 REMKI |
| Aircraft | A320/M-SDE3FGHIRWY/LB1 |
Departure
| Time | 2026-04-14 16:34 |
|---|---|
| Airport | Koltsovo Airport (USSS) |
Arrival
| Time | 2026-04-14 18:47 |
|---|---|
| Airport | Novy Urengoy Airport (USMU) |
| Time | Latitude | Longitude | Altitude | Speed | Heading |
|---|---|---|---|---|---|
| 2026-04-14 16:03 | 56.74935 | 60.79944 | 784 ft | 0 kts | 358° |
| 2026-04-14 16:25 | 56.74922 | 60.79945 | 778 ft | 2 kts | 359° |
| 2026-04-14 16:25 | 56.74905 | 60.79946 | 778 ft | 2 kts | 358° |
| 2026-04-14 16:25 | 56.74889 | 60.79946 | 778 ft | 2 kts | 358° |
| 2026-04-14 16:25 | 56.74873 | 60.79947 | 778 ft | 2 kts | 357° |
| 2026-04-14 16:26 | 56.74858 | 60.79957 | 778 ft | 2 kts | 293° |
| 2026-04-14 16:26 | 56.74853 | 60.79986 | 778 ft | 2 kts | 273° |
| 2026-04-14 16:26 | 56.74853 | 60.80003 | 778 ft | 1 kts | 270° |
| 2026-04-14 16:26 | 56.74853 | 60.80004 | 778 ft | 0 kts | 269° |
| 2026-04-14 16:28 | 56.74853 | 60.79967 | 778 ft | 6 kts | 270° |
| 2026-04-14 16:29 | 56.74853 | 60.79850 | 778 ft | 12 kts | 271° |
| 2026-04-14 16:29 | 56.74857 | 60.79663 | 778 ft | 17 kts | 270° |
| 2026-04-14 16:29 | 56.74858 | 60.79429 | 778 ft | 20 kts | 270° |
| 2026-04-14 16:29 | 56.74859 | 60.79154 | 778 ft | 23 kts | 270° |
| 2026-04-14 16:30 | 56.74857 | 60.78884 | 778 ft | 22 kts | 270° |
| 2026-04-14 16:30 | 56.74858 | 60.78615 | 778 ft | 20 kts | 271° |
| 2026-04-14 16:30 | 56.74858 | 60.78356 | 778 ft | 21 kts | 269° |
| 2026-04-14 16:30 | 56.74827 | 60.78154 | 778 ft | 14 kts | 200° |
| 2026-04-14 16:31 | 56.74735 | 60.78150 | 778 ft | 12 kts | 179° |
| 2026-04-14 16:31 | 56.74656 | 60.78149 | 778 ft | 11 kts | 180° |
| 2026-04-14 16:31 | 56.74587 | 60.78148 | 777 ft | 9 kts | 180° |
| 2026-04-14 16:31 | 56.74507 | 60.78150 | 774 ft | 16 kts | 175° |
| 2026-04-14 16:32 | 56.74391 | 60.78101 | 777 ft | 17 kts | 205° |
| 2026-04-14 16:32 | 56.74327 | 60.78047 | 777 ft | 8 kts | 205° |
| 2026-04-14 16:32 | 56.74276 | 60.78006 | 777 ft | 8 kts | 204° |
| 2026-04-14 16:32 | 56.74232 | 60.78001 | 776 ft | 6 kts | 134° |
| 2026-04-14 16:33 | 56.74227 | 60.78052 | 776 ft | 0 kts | 95° |
| 2026-04-14 16:33 | 56.74225 | 60.78096 | 776 ft | 22 kts | 95° |
| 2026-04-14 16:33 | 56.74199 | 60.78851 | 777 ft | 93 kts | 94° |
| 2026-04-14 16:34 | 56.74136 | 60.80369 | 774 ft | 149 kts | 94° |
| 2026-04-14 16:34 | 56.74054 | 60.82455 | 1057 ft | 169 kts | 92° |
| 2026-04-14 16:34 | 56.73987 | 60.84611 | 1752 ft | 169 kts | 91° |
| 2026-04-14 16:34 | 56.73971 | 60.86711 | 2495 ft | 168 kts | 92° |
| 2026-04-14 16:35 | 56.73958 | 60.88931 | 2872 ft | 185 kts | 92° |
| 2026-04-14 16:35 | 56.73941 | 60.91423 | 3093 ft | 210 kts | 92° |
| 2026-04-14 16:35 | 56.73919 | 60.94238 | 3406 ft | 234 kts | 92° |
| 2026-04-14 16:35 | 56.73896 | 60.97284 | 3992 ft | 246 kts | 92° |
| 2026-04-14 16:36 | 56.73969 | 61.00444 | 4686 ft | 257 kts | 78° |
| 2026-04-14 16:36 | 56.74877 | 61.03306 | 5236 ft | 271 kts | 40° |
| 2026-04-14 16:36 | 56.76576 | 61.04740 | 5982 ft | 274 kts | 4° |
| 2026-04-14 16:36 | 56.78456 | 61.04403 | 6793 ft | 273 kts | 346° |
| 2026-04-14 16:37 | 56.80356 | 61.04179 | 7609 ft | 277 kts | 5° |
| 2026-04-14 16:37 | 56.82243 | 61.04992 | 8447 ft | 280 kts | 17° |
| 2026-04-14 16:37 | 56.84069 | 61.06291 | 9279 ft | 283 kts | 21° |
| 2026-04-14 16:37 | 56.85874 | 61.07767 | 10103 ft | 286 kts | 21° |
| 2026-04-14 16:38 | 56.87715 | 61.09298 | 10555 ft | 301 kts | 21° |
| 2026-04-14 16:38 | 56.89702 | 61.10903 | 10729 ft | 324 kts | 21° |
| 2026-04-14 16:38 | 56.91845 | 61.12571 | 10963 ft | 343 kts | 20° |
| 2026-04-14 16:38 | 56.94073 | 61.14248 | 11544 ft | 349 kts | 19° |
| 2026-04-14 16:39 | 56.96335 | 61.15920 | 12218 ft | 352 kts | 19° |
| 2026-04-14 16:39 | 56.98625 | 61.17596 | 12907 ft | 356 kts | 19° |
| 2026-04-14 16:39 | 57.00932 | 61.19285 | 13595 ft | 359 kts | 19° |
| 2026-04-14 16:39 | 57.03259 | 61.20992 | 14241 ft | 362 kts | 19° |
| 2026-04-14 16:40 | 57.04813 | 61.22136 | 14631 ft | 364 kts | 19° |
| 2026-04-14 16:40 | 57.07167 | 61.23873 | 15233 ft | 366 kts | 19° |
| 2026-04-14 16:40 | 57.09541 | 61.25629 | 15820 ft | 369 kts | 19° |
| 2026-04-14 16:40 | 57.11933 | 61.27400 | 16409 ft | 372 kts | 19° |
| 2026-04-14 16:41 | 57.14341 | 61.29185 | 16987 ft | 375 kts | 18° |
| 2026-04-14 16:41 | 57.16771 | 61.30985 | 17573 ft | 378 kts | 18° |
| 2026-04-14 16:41 | 57.19220 | 61.32802 | 18145 ft | 381 kts | 18° |
| 2026-04-14 16:41 | 57.21688 | 61.34639 | 18698 ft | 384 kts | 18° |
| 2026-04-14 16:42 | 57.24174 | 61.36494 | 19197 ft | 387 kts | 18° |
| 2026-04-14 16:42 | 57.26679 | 61.38366 | 19706 ft | 390 kts | 18° |
| 2026-04-14 16:42 | 57.29176 | 61.40393 | 20185 ft | 396 kts | 23° |
| 2026-04-14 16:42 | 57.31563 | 61.43003 | 20686 ft | 401 kts | 27° |
| 2026-04-14 16:43 | 57.33950 | 61.45704 | 21156 ft | 404 kts | 26° |
| 2026-04-14 16:43 | 57.36354 | 61.48430 | 21625 ft | 406 kts | 26° |
| 2026-04-14 16:43 | 57.38777 | 61.51182 | 22079 ft | 409 kts | 26° |
| 2026-04-14 16:43 | 57.41215 | 61.53951 | 22527 ft | 412 kts | 26° |
| 2026-04-14 16:44 | 57.43667 | 61.56739 | 22963 ft | 415 kts | 26° |
| 2026-04-14 16:44 | 57.46137 | 61.59554 | 23391 ft | 418 kts | 26° |
| 2026-04-14 16:44 | 57.48623 | 61.62394 | 23797 ft | 421 kts | 26° |
| 2026-04-14 16:45 | 57.53643 | 61.68123 | 24461 ft | 426 kts | 26° |
| 2026-04-14 16:45 | 57.56175 | 61.71018 | 24786 ft | 428 kts | 26° |
| 2026-04-14 16:45 | 57.58719 | 61.73937 | 25112 ft | 431 kts | 26° |
| 2026-04-14 16:45 | 57.61278 | 61.76878 | 25436 ft | 433 kts | 26° |
| 2026-04-14 16:46 | 57.63778 | 61.80074 | 25759 ft | 440 kts | 33° |
| 2026-04-14 16:46 | 57.66067 | 61.83966 | 26059 ft | 447 kts | 39° |
| 2026-04-14 16:46 | 57.68294 | 61.88041 | 26363 ft | 449 kts | 38° |
| 2026-04-14 16:46 | 57.70534 | 61.92127 | 26667 ft | 451 kts | 38° |
| 2026-04-14 16:47 | 57.72788 | 61.96240 | 26961 ft | 453 kts | 38° |
| 2026-04-14 16:47 | 57.75048 | 62.00366 | 27262 ft | 455 kts | 38° |
| 2026-04-14 16:47 | 57.77317 | 62.04517 | 27549 ft | 457 kts | 38° |
| 2026-04-14 16:47 | 57.79593 | 62.08697 | 27818 ft | 459 kts | 38° |
| 2026-04-14 16:48 | 57.81873 | 62.12903 | 28096 ft | 461 kts | 39° |
| 2026-04-14 16:48 | 57.84158 | 62.17130 | 28364 ft | 462 kts | 39° |
| 2026-04-14 16:48 | 57.86450 | 62.21379 | 28618 ft | 464 kts | 39° |
| 2026-04-14 16:48 | 57.88751 | 62.25649 | 28864 ft | 466 kts | 39° |
| 2026-04-14 16:49 | 57.91055 | 62.29937 | 29103 ft | 467 kts | 39° |
| 2026-04-14 16:49 | 57.93368 | 62.34248 | 29325 ft | 469 kts | 39° |
| 2026-04-14 16:49 | 57.95688 | 62.38579 | 29540 ft | 470 kts | 39° |
| 2026-04-14 16:49 | 57.98007 | 62.42912 | 29841 ft | 470 kts | 39° |
| 2026-04-14 16:50 | 58.00328 | 62.47253 | 30163 ft | 469 kts | 39° |
| 2026-04-14 16:50 | 58.02645 | 62.51584 | 30446 ft | 469 kts | 39° |
| 2026-04-14 16:50 | 58.04957 | 62.55913 | 30692 ft | 469 kts | 38° |
| 2026-04-14 16:50 | 58.07270 | 62.60261 | 30937 ft | 469 kts | 38° |
| 2026-04-14 16:51 | 58.09578 | 62.64619 | 31196 ft | 469 kts | 38° |
| 2026-04-14 16:51 | 58.11881 | 62.68981 | 31455 ft | 468 kts | 38° |
| 2026-04-14 16:51 | 58.14182 | 62.73339 | 31715 ft | 468 kts | 38° |
| 2026-04-14 16:51 | 58.16477 | 62.77688 | 31980 ft | 467 kts | 38° |
| 2026-04-14 16:52 | 58.18771 | 62.82044 | 32250 ft | 466 kts | 38° |
| 2026-04-14 16:52 | 58.21059 | 62.86398 | 32527 ft | 466 kts | 38° |
| 2026-04-14 16:52 | 58.23342 | 62.90752 | 32791 ft | 465 kts | 38° |
| 2026-04-14 16:52 | 58.25618 | 62.95100 | 33071 ft | 464 kts | 38° |
| 2026-04-14 16:53 | 58.27887 | 62.99442 | 33356 ft | 463 kts | 38° |
| 2026-04-14 16:53 | 58.30147 | 63.03778 | 33642 ft | 461 kts | 38° |
| 2026-04-14 16:53 | 58.32374 | 63.08061 | 33918 ft | 460 kts | 38° |
| 2026-04-14 16:53 | 58.34619 | 63.12395 | 34200 ft | 459 kts | 38° |
| 2026-04-14 16:54 | 58.36858 | 63.16721 | 34451 ft | 458 kts | 38° |
| 2026-04-14 16:54 | 58.39095 | 63.21041 | 34673 ft | 457 kts | 38° |
| 2026-04-14 16:54 | 58.41325 | 63.25354 | 34883 ft | 457 kts | 38° |
| 2026-04-14 16:54 | 58.43556 | 63.29678 | 35090 ft | 457 kts | 38° |
| 2026-04-14 16:55 | 58.45782 | 63.34011 | 35241 ft | 457 kts | 39° |
| 2026-04-14 16:55 | 58.48008 | 63.38354 | 35278 ft | 458 kts | 39° |
| 2026-04-14 16:55 | 58.52459 | 63.47074 | 35283 ft | 458 kts | 39° |
| 2026-04-14 16:56 | 58.56906 | 63.55789 | 35279 ft | 458 kts | 39° |
| 2026-04-14 16:56 | 58.61351 | 63.64530 | 35284 ft | 458 kts | 39° |
| 2026-04-14 16:57 | 58.65789 | 63.73310 | 35283 ft | 458 kts | 39° |
| 2026-04-14 16:57 | 58.70215 | 63.82116 | 35291 ft | 458 kts | 39° |
| 2026-04-14 16:58 | 58.74648 | 63.90933 | 35294 ft | 458 kts | 39° |
| 2026-04-14 16:58 | 58.79083 | 63.99747 | 35301 ft | 458 kts | 39° |
| 2026-04-14 16:59 | 58.83507 | 64.08597 | 35300 ft | 458 kts | 39° |
| 2026-04-14 16:59 | 58.87916 | 64.17499 | 35299 ft | 458 kts | 39° |
| 2026-04-14 17:00 | 58.92330 | 64.26429 | 35293 ft | 458 kts | 39° |
| 2026-04-14 17:00 | 58.96705 | 64.35308 | 35293 ft | 459 kts | 39° |
| 2026-04-14 17:01 | 59.01109 | 64.44280 | 35299 ft | 459 kts | 39° |
| 2026-04-14 17:01 | 59.05505 | 64.53266 | 35294 ft | 459 kts | 39° |
| 2026-04-14 17:02 | 59.09898 | 64.62268 | 35295 ft | 459 kts | 39° |
| 2026-04-14 17:02 | 59.14279 | 64.71298 | 35303 ft | 459 kts | 39° |
| 2026-04-14 17:03 | 59.18678 | 64.80415 | 35313 ft | 459 kts | 40° |
| 2026-04-14 17:03 | 59.23017 | 64.89445 | 35317 ft | 459 kts | 40° |
| 2026-04-14 17:04 | 59.27385 | 64.98549 | 35325 ft | 459 kts | 40° |
| 2026-04-14 17:04 | 59.31739 | 65.07663 | 35323 ft | 459 kts | 40° |
| 2026-04-14 17:05 | 59.36087 | 65.16813 | 35322 ft | 458 kts | 40° |
| 2026-04-14 17:05 | 59.40430 | 65.25978 | 35320 ft | 458 kts | 40° |
| 2026-04-14 17:06 | 59.44753 | 65.35163 | 35323 ft | 458 kts | 40° |
| 2026-04-14 17:06 | 59.49074 | 65.44355 | 35320 ft | 457 kts | 40° |
| 2026-04-14 17:07 | 59.53385 | 65.53578 | 35323 ft | 457 kts | 40° |
| 2026-04-14 17:07 | 59.57679 | 65.62818 | 35322 ft | 457 kts | 40° |
| 2026-04-14 17:08 | 59.61968 | 65.72069 | 35322 ft | 457 kts | 40° |
| 2026-04-14 17:08 | 59.66257 | 65.81323 | 35317 ft | 456 kts | 40° |
| 2026-04-14 17:09 | 59.70532 | 65.90608 | 35504 ft | 456 kts | 40° |
| 2026-04-14 17:09 | 59.72639 | 65.95233 | 35361 ft | 447 kts | 41° |
| 2026-04-14 17:09 | 59.74684 | 65.99836 | 35279 ft | 442 kts | 42° |
| 2026-04-14 17:10 | 59.78695 | 66.09018 | 35283 ft | 440 kts | 42° |
| 2026-04-14 17:10 | 59.82698 | 66.18216 | 35284 ft | 440 kts | 42° |
| 2026-04-14 17:11 | 59.86701 | 66.27417 | 35282 ft | 440 kts | 42° |
| 2026-04-14 17:11 | 59.90710 | 66.36635 | 35285 ft | 440 kts | 42° |
| 2026-04-14 17:12 | 59.94720 | 66.45884 | 35295 ft | 441 kts | 43° |
| 2026-04-14 17:12 | 59.98723 | 66.55168 | 35299 ft | 441 kts | 43° |
| 2026-04-14 17:13 | 60.02719 | 66.64496 | 35294 ft | 441 kts | 43° |
| 2026-04-14 17:13 | 60.06714 | 66.73837 | 35290 ft | 442 kts | 43° |
| 2026-04-14 17:14 | 60.10699 | 66.83219 | 35293 ft | 442 kts | 43° |
| 2026-04-14 17:14 | 60.14669 | 66.92630 | 35289 ft | 442 kts | 44° |
| 2026-04-14 17:15 | 60.18639 | 67.02051 | 35287 ft | 442 kts | 44° |
| 2026-04-14 17:15 | 60.22607 | 67.11502 | 35286 ft | 442 kts | 44° |
| 2026-04-14 17:16 | 60.26565 | 67.20991 | 35280 ft | 442 kts | 44° |
| 2026-04-14 17:16 | 60.30521 | 67.30492 | 35278 ft | 442 kts | 44° |
| 2026-04-14 17:17 | 60.34468 | 67.40020 | 35274 ft | 442 kts | 44° |
| 2026-04-14 17:17 | 60.38414 | 67.49574 | 35272 ft | 442 kts | 45° |
| 2026-04-14 17:18 | 60.42325 | 67.59087 | 35274 ft | 443 kts | 45° |
| 2026-04-14 17:18 | 60.46255 | 67.68692 | 35263 ft | 443 kts | 45° |
| 2026-04-14 17:19 | 60.50182 | 67.78330 | 35271 ft | 443 kts | 45° |
| 2026-04-14 17:19 | 60.54100 | 67.87989 | 35263 ft | 443 kts | 45° |
| 2026-04-14 17:20 | 60.58015 | 67.97663 | 35268 ft | 443 kts | 45° |
| 2026-04-14 17:20 | 60.61932 | 68.07372 | 35270 ft | 444 kts | 46° |
| 2026-04-14 17:21 | 60.65833 | 68.17111 | 35278 ft | 444 kts | 46° |
| 2026-04-14 17:21 | 60.69728 | 68.26879 | 35282 ft | 444 kts | 46° |
| 2026-04-14 17:22 | 60.73622 | 68.36701 | 35280 ft | 444 kts | 46° |
| 2026-04-14 17:22 | 60.77513 | 68.46529 | 35281 ft | 444 kts | 46° |
| 2026-04-14 17:23 | 60.80774 | 68.54767 | 35279 ft | 444 kts | 46° |
| 2026-04-14 17:23 | 60.84648 | 68.64626 | 35285 ft | 444 kts | 47° |
| 2026-04-14 17:24 | 60.88493 | 68.74448 | 35287 ft | 444 kts | 47° |
| 2026-04-14 17:24 | 60.92352 | 68.84351 | 35287 ft | 444 kts | 47° |
| 2026-04-14 17:25 | 60.96200 | 68.94278 | 35291 ft | 444 kts | 47° |
| 2026-04-14 17:25 | 61.00047 | 69.04234 | 35291 ft | 444 kts | 47° |
| 2026-04-14 17:26 | 61.03999 | 69.13949 | 35285 ft | 439 kts | 39° |
| 2026-04-14 17:26 | 61.08528 | 69.22372 | 35283 ft | 438 kts | 38° |
| 2026-04-14 17:27 | 61.13086 | 69.30845 | 35274 ft | 438 kts | 38° |
| 2026-04-14 17:27 | 61.17585 | 69.39247 | 35271 ft | 438 kts | 38° |
| 2026-04-14 17:28 | 61.22103 | 69.47731 | 35267 ft | 438 kts | 38° |
| 2026-04-14 17:28 | 61.26642 | 69.56301 | 35264 ft | 438 kts | 39° |
| 2026-04-14 17:29 | 61.31121 | 69.64778 | 35264 ft | 438 kts | 39° |
| 2026-04-14 17:29 | 61.35657 | 69.73397 | 35265 ft | 438 kts | 39° |
| 2026-04-14 17:30 | 61.40136 | 69.81892 | 35267 ft | 438 kts | 39° |
| 2026-04-14 17:30 | 61.44695 | 69.90484 | 35267 ft | 438 kts | 38° |
| 2026-04-14 17:31 | 61.49189 | 69.98988 | 35265 ft | 438 kts | 39° |
| 2026-04-14 17:31 | 61.53705 | 70.07572 | 35266 ft | 438 kts | 39° |
| 2026-04-14 17:32 | 61.58212 | 70.16187 | 35264 ft | 438 kts | 39° |
| 2026-04-14 17:32 | 61.62710 | 70.24839 | 35265 ft | 439 kts | 39° |
| 2026-04-14 17:33 | 61.67205 | 70.33526 | 35265 ft | 439 kts | 39° |
| 2026-04-14 17:34 | 61.73941 | 70.46569 | 35265 ft | 438 kts | 39° |
| 2026-04-14 17:34 | 61.78424 | 70.55297 | 35263 ft | 438 kts | 39° |
| 2026-04-14 17:35 | 61.82900 | 70.64058 | 35263 ft | 438 kts | 39° |
| 2026-04-14 17:35 | 61.87377 | 70.72876 | 35264 ft | 439 kts | 39° |
| 2026-04-14 17:36 | 61.91838 | 70.81702 | 35268 ft | 439 kts | 39° |
| 2026-04-14 17:36 | 61.96302 | 70.90544 | 35264 ft | 439 kts | 39° |
| 2026-04-14 17:37 | 62.01098 | 70.98376 | 35265 ft | 432 kts | 26° |
| 2026-04-14 17:37 | 62.06522 | 71.03802 | 35265 ft | 431 kts | 22° |
| 2026-04-14 17:38 | 62.11968 | 71.09134 | 35263 ft | 431 kts | 22° |
| 2026-04-14 17:38 | 62.17375 | 71.14475 | 35270 ft | 431 kts | 22° |
| 2026-04-14 17:39 | 62.22820 | 71.19869 | 35268 ft | 431 kts | 22° |
| 2026-04-14 17:39 | 62.28266 | 71.25264 | 35274 ft | 431 kts | 22° |
| 2026-04-14 17:40 | 62.33712 | 71.30703 | 35278 ft | 431 kts | 22° |
| 2026-04-14 17:40 | 62.39154 | 71.36160 | 35282 ft | 431 kts | 22° |
| 2026-04-14 17:41 | 62.44588 | 71.41619 | 35291 ft | 431 kts | 22° |
| 2026-04-14 17:41 | 62.50018 | 71.47081 | 35287 ft | 430 kts | 22° |
| 2026-04-14 17:42 | 62.55451 | 71.52569 | 35294 ft | 430 kts | 22° |
| 2026-04-14 17:42 | 62.60869 | 71.58069 | 35298 ft | 430 kts | 22° |
| 2026-04-14 17:43 | 62.66279 | 71.63609 | 35298 ft | 430 kts | 22° |
| 2026-04-14 17:43 | 62.71684 | 71.69162 | 35294 ft | 430 kts | 22° |
| 2026-04-14 17:44 | 62.77087 | 71.74725 | 35289 ft | 429 kts | 22° |
| 2026-04-14 17:44 | 62.82488 | 71.80298 | 35289 ft | 429 kts | 22° |
| 2026-04-14 17:45 | 62.87880 | 71.85898 | 35289 ft | 429 kts | 22° |
| 2026-04-14 17:45 | 62.93268 | 71.91517 | 35291 ft | 428 kts | 22° |
| 2026-04-14 17:46 | 62.98647 | 71.97152 | 35293 ft | 428 kts | 22° |
| 2026-04-14 17:46 | 63.03988 | 72.02759 | 35293 ft | 428 kts | 22° |
| 2026-04-14 17:47 | 63.09362 | 72.08427 | 35294 ft | 428 kts | 22° |
| 2026-04-14 17:47 | 63.14763 | 72.14150 | 35297 ft | 428 kts | 22° |
| 2026-04-14 17:48 | 63.20086 | 72.19811 | 35296 ft | 427 kts | 22° |
| 2026-04-14 17:48 | 63.25441 | 72.25524 | 35297 ft | 427 kts | 22° |
| 2026-04-14 17:49 | 63.30796 | 72.31256 | 35297 ft | 427 kts | 22° |
| 2026-04-14 17:49 | 63.36137 | 72.37015 | 35296 ft | 426 kts | 22° |
| 2026-04-14 17:50 | 63.41473 | 72.42791 | 35298 ft | 426 kts | 22° |
| 2026-04-14 17:50 | 63.46809 | 72.48586 | 35301 ft | 426 kts | 22° |
| 2026-04-14 17:51 | 63.52137 | 72.54404 | 35301 ft | 426 kts | 22° |
| 2026-04-14 17:51 | 63.57467 | 72.60228 | 35302 ft | 426 kts | 22° |
| 2026-04-14 17:52 | 63.62745 | 72.66054 | 35298 ft | 425 kts | 22° |
| 2026-04-14 17:52 | 63.68055 | 72.71924 | 35304 ft | 425 kts | 22° |
| 2026-04-14 17:53 | 63.73356 | 72.77802 | 35299 ft | 424 kts | 22° |
| 2026-04-14 17:53 | 63.78649 | 72.83697 | 35297 ft | 424 kts | 22° |
| 2026-04-14 17:54 | 63.83932 | 72.89615 | 35291 ft | 423 kts | 22° |
| 2026-04-14 17:54 | 63.89202 | 72.95554 | 35296 ft | 423 kts | 22° |
| 2026-04-14 17:55 | 63.94374 | 73.01963 | 35293 ft | 426 kts | 29° |
| 2026-04-14 17:55 | 63.99323 | 73.09375 | 35292 ft | 426 kts | 29° |
| 2026-04-14 17:56 | 64.04268 | 73.16809 | 35288 ft | 426 kts | 29° |
| 2026-04-14 17:56 | 64.09211 | 73.24263 | 35288 ft | 425 kts | 29° |
| 2026-04-14 17:57 | 64.14143 | 73.31758 | 35289 ft | 425 kts | 29° |
| 2026-04-14 17:57 | 64.19040 | 73.39230 | 35283 ft | 425 kts | 29° |
| 2026-04-14 17:58 | 64.23958 | 73.46766 | 35282 ft | 425 kts | 29° |
| 2026-04-14 17:58 | 64.28881 | 73.54313 | 35286 ft | 424 kts | 29° |
| 2026-04-14 17:59 | 64.33790 | 73.61867 | 35282 ft | 424 kts | 29° |
| 2026-04-14 17:59 | 64.38691 | 73.69470 | 35283 ft | 424 kts | 29° |
| 2026-04-14 18:00 | 64.43589 | 73.77091 | 35284 ft | 424 kts | 29° |
| 2026-04-14 18:00 | 64.50923 | 73.88559 | 35279 ft | 424 kts | 29° |
| 2026-04-14 18:01 | 64.55801 | 73.96236 | 35282 ft | 424 kts | 29° |
| 2026-04-14 18:01 | 64.60679 | 74.03964 | 35281 ft | 423 kts | 29° |
| 2026-04-14 18:02 | 64.65539 | 74.11678 | 34978 ft | 421 kts | 29° |
| 2026-04-14 18:02 | 64.67956 | 74.15527 | 34515 ft | 420 kts | 29° |
| 2026-04-14 18:02 | 64.70365 | 74.19368 | 34108 ft | 420 kts | 29° |
| 2026-04-14 18:03 | 64.72779 | 74.23225 | 33648 ft | 420 kts | 29° |
| 2026-04-14 18:03 | 64.75195 | 74.27096 | 33204 ft | 420 kts | 29° |
| 2026-04-14 18:03 | 64.77609 | 74.30974 | 32759 ft | 421 kts | 29° |
| 2026-04-14 18:03 | 64.80023 | 74.34862 | 32329 ft | 421 kts | 29° |
| 2026-04-14 18:04 | 64.82440 | 74.38760 | 31887 ft | 422 kts | 29° |
| 2026-04-14 18:04 | 64.84857 | 74.42668 | 31468 ft | 422 kts | 29° |
| 2026-04-14 18:04 | 64.87275 | 74.46592 | 31048 ft | 423 kts | 29° |
| 2026-04-14 18:04 | 64.89694 | 74.50529 | 30643 ft | 423 kts | 29° |
| 2026-04-14 18:05 | 64.92112 | 74.54472 | 30227 ft | 423 kts | 29° |
| 2026-04-14 18:05 | 64.94535 | 74.58429 | 29714 ft | 423 kts | 29° |
| 2026-04-14 18:05 | 64.96946 | 74.62369 | 29235 ft | 420 kts | 30° |
| 2026-04-14 18:05 | 64.99339 | 74.66288 | 28755 ft | 417 kts | 30° |
| 2026-04-14 18:06 | 65.01710 | 74.70184 | 28283 ft | 413 kts | 30° |
| 2026-04-14 18:06 | 65.04059 | 74.74055 | 27816 ft | 410 kts | 30° |
| 2026-04-14 18:06 | 65.06384 | 74.77895 | 27353 ft | 406 kts | 30° |
| 2026-04-14 18:06 | 65.08695 | 74.81719 | 26907 ft | 403 kts | 30° |
| 2026-04-14 18:07 | 65.10988 | 74.85519 | 26465 ft | 400 kts | 30° |
| 2026-04-14 18:07 | 65.13259 | 74.89286 | 26027 ft | 397 kts | 30° |
| 2026-04-14 18:07 | 65.14756 | 74.91774 | 25740 ft | 395 kts | 30° |
| 2026-04-14 18:07 | 65.17001 | 74.95511 | 25317 ft | 393 kts | 30° |
| 2026-04-14 18:08 | 65.19949 | 75.00435 | 24761 ft | 389 kts | 30° |
| 2026-04-14 18:08 | 65.22160 | 75.04140 | 24346 ft | 387 kts | 30° |
| 2026-04-14 18:08 | 65.24350 | 75.07819 | 23944 ft | 384 kts | 30° |
| 2026-04-14 18:08 | 65.26526 | 75.11486 | 23486 ft | 382 kts | 30° |
| 2026-04-14 18:09 | 65.27960 | 75.13904 | 23259 ft | 380 kts | 30° |
| 2026-04-14 18:09 | 65.30099 | 75.17515 | 22768 ft | 373 kts | 30° |
| 2026-04-14 18:09 | 65.32200 | 75.21067 | 22274 ft | 368 kts | 30° |
| 2026-04-14 18:09 | 65.34276 | 75.24581 | 21792 ft | 363 kts | 30° |
| 2026-04-14 18:10 | 65.36320 | 75.28056 | 21340 ft | 358 kts | 30° |
| 2026-04-14 18:10 | 65.38338 | 75.31496 | 20897 ft | 354 kts | 30° |
| 2026-04-14 18:10 | 65.40329 | 75.34895 | 20482 ft | 349 kts | 30° |
| 2026-04-14 18:10 | 65.42296 | 75.38252 | 20058 ft | 344 kts | 30° |
| 2026-04-14 18:11 | 65.44235 | 75.41570 | 19653 ft | 340 kts | 31° |
| 2026-04-14 18:11 | 65.46150 | 75.44852 | 19252 ft | 336 kts | 31° |
| 2026-04-14 18:11 | 65.48046 | 75.48109 | 18851 ft | 334 kts | 31° |
| 2026-04-14 18:11 | 65.49931 | 75.51347 | 18422 ft | 332 kts | 31° |
| 2026-04-14 18:12 | 65.51806 | 75.54567 | 17985 ft | 330 kts | 31° |
| 2026-04-14 18:12 | 65.53665 | 75.57769 | 17556 ft | 327 kts | 31° |
| 2026-04-14 18:12 | 65.55510 | 75.60954 | 17141 ft | 325 kts | 31° |
| 2026-04-14 18:12 | 65.57344 | 75.64126 | 16711 ft | 323 kts | 31° |
| 2026-04-14 18:13 | 65.59167 | 75.67288 | 16276 ft | 321 kts | 31° |
| 2026-04-14 18:13 | 65.60973 | 75.70431 | 15848 ft | 319 kts | 32° |
| 2026-04-14 18:13 | 65.62771 | 75.73570 | 15406 ft | 317 kts | 32° |
| 2026-04-14 18:13 | 65.64553 | 75.76689 | 14974 ft | 315 kts | 32° |
| 2026-04-14 18:14 | 65.66329 | 75.79798 | 14530 ft | 314 kts | 32° |
| 2026-04-14 18:14 | 65.68096 | 75.82896 | 14093 ft | 312 kts | 32° |
| 2026-04-14 18:14 | 65.69794 | 75.86251 | 13472 ft | 318 kts | 41° |
| 2026-04-14 18:14 | 65.71210 | 75.90330 | 13106 ft | 316 kts | 51° |
| 2026-04-14 18:15 | 65.72304 | 75.94902 | 12631 ft | 318 kts | 58° |
| 2026-04-14 18:15 | 65.73316 | 75.99651 | 12144 ft | 316 kts | 58° |
| 2026-04-14 18:15 | 65.74321 | 76.04381 | 11651 ft | 314 kts | 58° |
| 2026-04-14 18:15 | 65.75320 | 76.09089 | 11159 ft | 313 kts | 58° |
| 2026-04-14 18:16 | 65.76309 | 76.13768 | 10828 ft | 306 kts | 58° |
| 2026-04-14 18:16 | 65.77252 | 76.18260 | 10664 ft | 288 kts | 58° |
| 2026-04-14 18:16 | 65.78136 | 76.22494 | 10304 ft | 275 kts | 58° |
| 2026-04-14 18:16 | 65.78998 | 76.26606 | 10094 ft | 273 kts | 58° |
| 2026-04-14 18:17 | 65.79861 | 76.30713 | 9954 ft | 272 kts | 58° |
| 2026-04-14 18:17 | 65.80720 | 76.34815 | 9807 ft | 271 kts | 59° |
| 2026-04-14 18:17 | 65.81575 | 76.38904 | 9665 ft | 271 kts | 59° |
| 2026-04-14 18:17 | 65.82428 | 76.42989 | 9513 ft | 270 kts | 59° |
| 2026-04-14 18:18 | 65.83282 | 76.47087 | 9190 ft | 272 kts | 59° |
| 2026-04-14 18:18 | 65.84138 | 76.51212 | 8737 ft | 271 kts | 59° |
| 2026-04-14 18:18 | 65.84986 | 76.55308 | 8234 ft | 271 kts | 59° |
| 2026-04-14 18:18 | 65.85823 | 76.59366 | 7690 ft | 264 kts | 60° |
| 2026-04-14 18:19 | 65.86642 | 76.63351 | 7177 ft | 261 kts | 60° |
| 2026-04-14 18:19 | 65.87452 | 76.67303 | 6690 ft | 259 kts | 60° |
| 2026-04-14 18:19 | 65.88253 | 76.71228 | 6177 ft | 257 kts | 60° |
| 2026-04-14 18:19 | 65.89051 | 76.75141 | 5690 ft | 258 kts | 60° |
| 2026-04-14 18:20 | 65.89856 | 76.79069 | 5165 ft | 259 kts | 59° |
| 2026-04-14 18:20 | 65.90653 | 76.82954 | 4584 ft | 252 kts | 58° |
| 2026-04-14 18:20 | 65.91647 | 76.86345 | 4057 ft | 236 kts | 40° |
| 2026-04-14 18:20 | 65.92856 | 76.88662 | 3979 ft | 208 kts | 26° |
| 2026-04-14 18:21 | 65.94107 | 76.90028 | 3891 ft | 187 kts | 14° |
| 2026-04-14 18:21 | 65.95303 | 76.90964 | 3809 ft | 177 kts | 15° |
| 2026-04-14 18:21 | 65.96467 | 76.91877 | 3727 ft | 175 kts | 15° |
| 2026-04-14 18:21 | 65.97626 | 76.92784 | 3647 ft | 174 kts | 15° |
| 2026-04-14 18:22 | 65.98781 | 76.93689 | 3571 ft | 174 kts | 15° |
| 2026-04-14 18:22 | 65.99926 | 76.94467 | 3489 ft | 172 kts | 2° |
| 2026-04-14 18:22 | 66.01064 | 76.93821 | 3407 ft | 172 kts | 329° |
| 2026-04-14 18:22 | 66.01808 | 76.91498 | 3138 ft | 182 kts | 293° |
| 2026-04-14 18:23 | 66.02170 | 76.88513 | 2854 ft | 181 kts | 295° |
| 2026-04-14 18:23 | 66.02567 | 76.85635 | 2614 ft | 176 kts | 295° |
| 2026-04-14 18:23 | 66.02947 | 76.82819 | 2332 ft | 170 kts | 295° |
| 2026-04-14 18:23 | 66.03298 | 76.80167 | 2099 ft | 155 kts | 295° |
| 2026-04-14 18:24 | 66.03610 | 76.77799 | 1905 ft | 138 kts | 296° |
| 2026-04-14 18:24 | 66.03897 | 76.75632 | 1778 ft | 130 kts | 296° |
| 2026-04-14 18:24 | 66.04174 | 76.73542 | 1775 ft | 127 kts | 296° |
| 2026-04-14 18:24 | 66.04447 | 76.71477 | 1729 ft | 127 kts | 296° |
| 2026-04-14 18:25 | 66.04719 | 76.69412 | 1598 ft | 127 kts | 296° |
| 2026-04-14 18:25 | 66.04990 | 76.67352 | 1440 ft | 126 kts | 295° |
| 2026-04-14 18:25 | 66.05258 | 76.65313 | 1252 ft | 125 kts | 295° |
| 2026-04-14 18:25 | 66.05527 | 76.63272 | 1072 ft | 125 kts | 294° |
| 2026-04-14 18:26 | 66.05795 | 76.61228 | 861 ft | 126 kts | 293° |
| 2026-04-14 18:26 | 66.06060 | 76.59179 | 683 ft | 126 kts | 292° |
| 2026-04-14 18:26 | 66.06329 | 76.57129 | 496 ft | 126 kts | 291° |
| 2026-04-14 18:26 | 66.06593 | 76.55090 | 353 ft | 125 kts | 291° |
| 2026-04-14 18:27 | 66.06857 | 76.53025 | 299 ft | 132 kts | 291° |
| 2026-04-14 18:27 | 66.07146 | 76.50758 | 1054 ft | 144 kts | 293° |
| 2026-04-14 18:27 | 66.07438 | 76.48385 | 1791 ft | 150 kts | 295° |
| 2026-04-14 18:27 | 66.07740 | 76.45724 | 2137 ft | 176 kts | 282° |
| 2026-04-14 18:28 | 66.07357 | 76.42579 | 2438 ft | 216 kts | 233° |
| 2026-04-14 18:28 | 66.06024 | 76.40583 | 2735 ft | 234 kts | 192° |
| 2026-04-14 18:28 | 66.04458 | 76.41074 | 2767 ft | 229 kts | 147° |
| 2026-04-14 18:28 | 66.03352 | 76.43747 | 2770 ft | 222 kts | 116° |
| 2026-04-14 18:29 | 66.02833 | 76.47228 | 2756 ft | 214 kts | 90° |
| 2026-04-14 18:29 | 66.02705 | 76.50882 | 2763 ft | 214 kts | 88° |
| 2026-04-14 18:29 | 66.02590 | 76.54533 | 2745 ft | 214 kts | 88° |
| 2026-04-14 18:29 | 66.02478 | 76.58182 | 2752 ft | 214 kts | 88° |
| 2026-04-14 18:30 | 66.02366 | 76.61819 | 2751 ft | 214 kts | 88° |
| 2026-04-14 18:30 | 66.02250 | 76.65463 | 2751 ft | 214 kts | 89° |
| 2026-04-14 18:30 | 66.02131 | 76.69104 | 2744 ft | 213 kts | 88° |
| 2026-04-14 18:30 | 66.02013 | 76.72742 | 2746 ft | 214 kts | 88° |
| 2026-04-14 18:31 | 66.01897 | 76.76377 | 2753 ft | 213 kts | 89° |
| 2026-04-14 18:31 | 66.01779 | 76.80011 | 2752 ft | 213 kts | 89° |
| 2026-04-14 18:31 | 66.01658 | 76.83640 | 2747 ft | 213 kts | 89° |
| 2026-04-14 18:31 | 66.01537 | 76.87270 | 2747 ft | 213 kts | 88° |
| 2026-04-14 18:32 | 66.01654 | 76.90811 | 2744 ft | 204 kts | 65° |
| 2026-04-14 18:32 | 66.02381 | 76.93675 | 2750 ft | 195 kts | 38° |
| 2026-04-14 18:32 | 66.03525 | 76.95327 | 2753 ft | 190 kts | 13° |
| 2026-04-14 18:32 | 66.04795 | 76.95519 | 2742 ft | 177 kts | 349° |
| 2026-04-14 18:33 | 66.05913 | 76.94423 | 2719 ft | 173 kts | 328° |
| 2026-04-14 18:33 | 66.06749 | 76.92306 | 2581 ft | 176 kts | 306° |
| 2026-04-14 18:33 | 66.07132 | 76.89412 | 2406 ft | 186 kts | 272° |
| 2026-04-14 18:34 | 66.06278 | 76.80285 | 1925 ft | 173 kts | 261° |
| 2026-04-14 18:34 | 66.05841 | 76.77539 | 1718 ft | 172 kts | 249° |
| 2026-04-14 18:34 | 66.05280 | 76.75013 | 1610 ft | 161 kts | 259° |
| 2026-04-14 18:35 | 66.05064 | 76.72041 | 1883 ft | 201 kts | 267° |
| 2026-04-14 18:35 | 66.05007 | 76.68528 | 2125 ft | 194 kts | 284° |
| 2026-04-14 18:35 | 66.05277 | 76.65484 | 2424 ft | 186 kts | 292° |
| 2026-04-14 18:35 | 66.05664 | 76.62320 | 2678 ft | 201 kts | 292° |
| 2026-04-14 18:36 | 66.06086 | 76.59012 | 2743 ft | 203 kts | 293° |
| 2026-04-14 18:36 | 66.06516 | 76.55699 | 2754 ft | 203 kts | 293° |
| 2026-04-14 18:36 | 66.06752 | 76.52248 | 2758 ft | 210 kts | 270° |
| 2026-04-14 18:36 | 66.06236 | 76.48841 | 2748 ft | 221 kts | 236° |
| 2026-04-14 18:37 | 66.04974 | 76.46622 | 2759 ft | 230 kts | 198° |
| 2026-04-14 18:37 | 66.03394 | 76.46610 | 2754 ft | 231 kts | 158° |
| 2026-04-14 18:37 | 66.02120 | 76.48814 | 2755 ft | 224 kts | 122° |
| 2026-04-14 18:37 | 66.01264 | 76.52004 | 2750 ft | 223 kts | 117° |
| 2026-04-14 18:38 | 66.00430 | 76.55220 | 2749 ft | 223 kts | 117° |
| 2026-04-14 18:38 | 65.99596 | 76.58438 | 2749 ft | 223 kts | 117° |
| 2026-04-14 18:38 | 65.98759 | 76.61648 | 2748 ft | 223 kts | 117° |
| 2026-04-14 18:38 | 65.97918 | 76.64853 | 2748 ft | 223 kts | 118° |
| 2026-04-14 18:39 | 65.97075 | 76.68043 | 2744 ft | 223 kts | 118° |
| 2026-04-14 18:39 | 65.96225 | 76.71236 | 2746 ft | 223 kts | 118° |
| 2026-04-14 18:39 | 65.95376 | 76.74421 | 2746 ft | 223 kts | 118° |
| 2026-04-14 18:39 | 65.94546 | 76.77622 | 2750 ft | 221 kts | 114° |
| 2026-04-14 18:40 | 65.93959 | 76.81056 | 2748 ft | 216 kts | 97° |
| 2026-04-14 18:40 | 65.93876 | 76.84625 | 2744 ft | 207 kts | 74° |
| 2026-04-14 18:40 | 65.94339 | 76.87851 | 2753 ft | 194 kts | 53° |
| 2026-04-14 18:40 | 65.95170 | 76.90219 | 2736 ft | 177 kts | 34° |
| 2026-04-14 18:41 | 65.96207 | 76.91676 | 2744 ft | 170 kts | 17° |
| 2026-04-14 18:41 | 65.97330 | 76.92545 | 2744 ft | 169 kts | 15° |
| 2026-04-14 18:41 | 65.98445 | 76.93410 | 2744 ft | 168 kts | 15° |
| 2026-04-14 18:41 | 65.99594 | 76.93788 | 2751 ft | 167 kts | 355° |
| 2026-04-14 18:42 | 66.00681 | 76.93073 | 2764 ft | 161 kts | 336° |
| 2026-04-14 18:42 | 66.01567 | 76.91422 | 2650 ft | 160 kts | 316° |
| 2026-04-14 18:42 | 66.02127 | 76.89068 | 2568 ft | 163 kts | 296° |
| 2026-04-14 18:42 | 66.02480 | 76.86425 | 2305 ft | 161 kts | 295° |
| 2026-04-14 18:43 | 66.02818 | 76.83843 | 2065 ft | 156 kts | 295° |
| 2026-04-14 18:43 | 66.03138 | 76.81406 | 1802 ft | 146 kts | 295° |
| 2026-04-14 18:43 | 66.03454 | 76.79025 | 1754 ft | 147 kts | 295° |
| 2026-04-14 18:43 | 66.03770 | 76.76630 | 1782 ft | 146 kts | 295° |
| 2026-04-14 18:44 | 66.04071 | 76.74335 | 1754 ft | 137 kts | 296° |
| 2026-04-14 18:44 | 66.04362 | 76.72130 | 1731 ft | 134 kts | 296° |
| 2026-04-14 18:44 | 66.04647 | 76.69964 | 1630 ft | 132 kts | 296° |
| 2026-04-14 18:44 | 66.04923 | 76.67860 | 1474 ft | 128 kts | 295° |
| 2026-04-14 18:45 | 66.05196 | 76.65798 | 1313 ft | 126 kts | 295° |
| 2026-04-14 18:45 | 66.05462 | 76.63757 | 1116 ft | 125 kts | 294° |
| 2026-04-14 18:45 | 66.05728 | 76.61714 | 891 ft | 125 kts | 293° |
| 2026-04-14 18:45 | 66.05997 | 76.59690 | 711 ft | 124 kts | 293° |
| 2026-04-14 18:46 | 66.06263 | 76.57659 | 518 ft | 125 kts | 291° |
| 2026-04-14 18:46 | 66.06525 | 76.55624 | 324 ft | 124 kts | 292° |
| 2026-04-14 18:46 | 66.06779 | 76.53636 | 218 ft | 114 kts | 292° |
| 2026-04-14 18:46 | 66.06980 | 76.52133 | 220 ft | 68 kts | 288° |
| 2026-04-14 18:47 | 66.07082 | 76.51341 | 217 ft | 40 kts | 287° |
| 2026-04-14 18:47 | 66.07163 | 76.50754 | 216 ft | 25 kts | 287° |
| 2026-04-14 18:47 | 66.07264 | 76.50606 | 220 ft | 17 kts | 17° |
| 2026-04-14 18:47 | 66.07362 | 76.50707 | 223 ft | 13 kts | 58° |
| 2026-04-14 18:48 | 66.07346 | 76.50932 | 216 ft | 13 kts | 107° |
| 2026-04-14 18:48 | 66.07316 | 76.51154 | 216 ft | 16 kts | 108° |
| 2026-04-14 18:48 | 66.07277 | 76.51451 | 216 ft | 21 kts | 108° |
| 2026-04-14 18:48 | 66.07231 | 76.51811 | 216 ft | 22 kts | 107° |
| 2026-04-14 18:49 | 66.07190 | 76.52125 | 216 ft | 16 kts | 108° |
| 2026-04-14 18:49 | 66.07168 | 76.52319 | 225 ft | 9 kts | 87° |
| 2026-04-14 18:49 | 66.07203 | 76.52383 | 216 ft | 6 kts | 17° |
| 2026-04-14 18:49 | 66.07217 | 76.52395 | 216 ft | 0 kts | 18° |